Time;durP1;ratioP1;P1;durP2;ratioP2;P2;SDS_P1;SDS_P2;PMS_P1;PMS_P2;Temp;Humidity;BMP_temperature;BMP_pressure;BME280_temperature;BME280_humidity;BME280_pressure;Samples;Min_cycle;Max_cycle;Signal;HPM_P1;HPM_P2
2021/03/05 00:00:33;;;;;;;16.63;5.90;;;3.70;99.90;;;;;;5011261;28;20026;-73
2021/03/05 00:02:59;;;;;;;10.15;5.43;;;3.80;99.90;;;;;;5011836;28;20397;-71
2021/03/05 00:05:24;;;;;;;13.50;6.00;;;3.80;99.90;;;;;;5011825;28;20046;-73
2021/03/05 00:07:50;;;;;;;10.20;5.57;;;3.80;99.90;;;;;;5005346;28;20015;-73
2021/03/05 00:10:20;;;;;;;8.27;6.00;;;3.80;99.90;;;;;;5004192;28;20026;-73
2021/03/05 00:12:46;;;;;;;9.02;4.45;;;3.80;99.90;;;;;;5011776;28;20018;-73
2021/03/05 00:15:12;;;;;;;6.45;4.80;;;3.80;99.90;;;;;;5011165;28;20042;-73
2021/03/05 00:17:39;;;;;;;8.73;6.22;;;3.80;99.90;;;;;;5015831;28;20026;-73
2021/03/05 00:20:20;;;;;;;9.13;5.45;;;3.80;99.90;;;;;;5015451;28;20068;-73
2021/03/05 00:22:45;;;;;;;14.68;6.28;;;3.80;99.90;;;;;;5015540;28;20026;-73
2021/03/05 00:25:11;;;;;;;13.98;6.10;;;3.80;99.90;;;;;;5015518;28;20033;-73
2021/03/05 00:27:37;;;;;;;8.02;5.93;;;3.80;99.90;;;;;;5015582;28;20049;-72
2021/03/05 00:30:05;;;;;;;10.07;6.05;;;3.90;99.90;;;;;;5014979;28;20029;-72
2021/03/05 00:32:31;;;;;;;12.88;6.50;;;3.80;99.90;;;;;;5015447;28;20018;-72
2021/03/05 00:34:57;;;;;;;9.57;6.32;;;3.80;99.90;;;;;;5015133;28;20453;-72
2021/03/05 00:37:23;;;;;;;10.20;6.65;;;3.90;99.90;;;;;;5015315;28;20026;-73
2021/03/05 00:39:48;;;;;;;14.00;5.80;;;3.90;99.90;;;;;;5002501;28;20073;-73
2021/03/05 00:42:14;;;;;;;8.48;6.95;;;3.80;99.90;;;;;;5014576;28;20018;-72
2021/03/05 00:44:39;;;;;;;9.35;6.35;;;3.80;99.90;;;;;;5014940;28;20429;-72
2021/03/05 00:47:05;;;;;;;9.30;6.22;;;3.90;99.90;;;;;;5014967;28;20014;-73
2021/03/05 00:49:30;;;;;;;12.18;6.47;;;3.80;99.90;;;;;;5015022;28;20061;-72
2021/03/05 00:51:56;;;;;;;11.40;6.43;;;3.80;99.90;;;;;;5014519;28;20068;-72
2021/03/05 00:54:22;;;;;;;11.68;6.40;;;3.80;99.90;;;;;;5015661;28;20385;-72
2021/03/05 00:56:48;;;;;;;11.05;6.85;;;3.70;99.90;;;;;;5021110;28;20025;-72
2021/03/05 00:59:13;;;;;;;7.80;6.43;;;3.70;99.90;;;;;;5014532;28;20106;-73
2021/03/05 01:01:39;;;;;;;7.32;5.90;;;3.70;99.90;;;;;;5006690;28;20084;-72
2021/03/05 01:04:04;;;;;;;8.18;6.15;;;3.70;99.90;;;;;;5014525;28;20096;-72
2021/03/05 01:06:30;;;;;;;8.30;5.90;;;3.60;99.90;;;;;;5018492;28;20033;-72
2021/03/05 01:08:56;;;;;;;10.45;5.80;;;3.50;99.90;;;;;;5016495;28;20141;-73
2021/03/05 01:11:22;;;;;;;7.03;5.78;;;3.40;99.90;;;;;;5022981;28;20049;-72
2021/03/05 01:13:47;;;;;;;10.00;6.47;;;3.40;99.90;;;;;;5018955;28;20057;-72
2021/03/05 01:16:14;;;;;;;7.40;6.13;;;3.40;99.90;;;;;;5014467;28;20049;-72
2021/03/05 01:18:39;;;;;;;10.30;6.80;;;3.30;99.90;;;;;;5014370;28;20060;-73
2021/03/05 01:21:05;;;;;;;13.02;7.10;;;3.20;99.90;;;;;;5014176;28;20054;-73
2021/03/05 01:23:31;;;;;;;10.32;6.55;;;3.20;99.90;;;;;;5014124;28;20030;-72
2021/03/05 01:25:57;;;;;;;10.00;5.75;;;3.10;99.90;;;;;;5014040;28;20049;-72
2021/03/05 01:28:23;;;;;;;9.35;6.88;;;3.00;99.90;;;;;;5013716;28;20034;-73
2021/03/05 01:30:49;;;;;;;7.15;5.75;;;3.00;99.90;;;;;;5014297;28;20029;-73
2021/03/05 01:33:14;;;;;;;11.52;6.28;;;2.90;99.90;;;;;;5014170;28;20105;-73
2021/03/05 01:35:41;;;;;;;18.27;7.13;;;2.80;99.90;;;;;;5014606;28;20413;-72
2021/03/05 01:38:07;;;;;;;8.93;6.75;;;2.70;99.90;;;;;;5014214;28;20045;-73
2021/03/05 01:40:38;;;;;;;9.25;6.30;;;2.70;99.90;;;;;;5013999;28;20022;-72
2021/03/05 01:43:14;;;;;;;14.50;8.57;;;2.70;99.90;;;;;;5014206;28;20052;-72
2021/03/05 01:45:40;;;;;;;13.40;7.18;;;2.60;99.90;;;;;;5014249;28;20052;-73
2021/03/05 01:48:10;;;;;;;14.73;7.43;;;2.60;99.90;;;;;;5013932;28;20022;-74
2021/03/05 01:50:58;;;;;;;14.23;8.15;;;2.50;99.90;;;;;;5014152;28;20018;-72
2021/03/05 01:53:24;;;;;;;18.50;8.07;;;2.50;99.90;;;;;;5013519;28;20041;-73
2021/03/05 01:55:50;;;;;;;13.52;8.02;;;2.50;99.90;;;;;;5013733;28;20105;-73
2021/03/05 01:58:15;;;;;;;12.25;7.85;;;2.40;99.90;;;;;;5014151;28;20065;-72
2021/03/05 02:00:47;;;;;;;11.45;8.15;;;2.40;99.90;;;;;;5013551;28;20022;-73
2021/03/05 02:03:13;;;;;;;16.60;8.55;;;2.40;99.90;;;;;;5014092;28;20084;-72
2021/03/05 02:05:45;;;;;;;16.30;7.50;;;2.30;99.90;;;;;;5013704;28;20474;-73
2021/03/05 02:08:12;;;;;;;12.20;7.90;;;2.30;99.90;;;;;;5013503;28;20076;-73
2021/03/05 02:10:39;;;;;;;12.65;7.93;;;2.20;99.90;;;;;;5014100;28;20033;-72
2021/03/05 02:13:04;;;;;;;13.57;7.47;;;2.20;99.90;;;;;;5013551;28;20020;-73
2021/03/05 02:15:32;;;;;;;15.02;7.53;;;2.20;99.90;;;;;;5013273;28;20052;-73
2021/03/05 02:18:25;;;;;;;17.88;7.88;;;2.20;99.90;;;;;;5013510;28;20033;-73
2021/03/05 02:21:12;;;;;;;10.15;6.97;;;2.10;99.90;;;;;;5013501;28;20111;-72
2021/03/05 02:23:55;;;;;;;13.45;8.00;;;2.20;99.90;;;;;;5007870;28;20108;-72
2021/03/05 02:26:54;;;;;;;10.50;7.35;;;2.20;99.90;;;;;;5008091;28;20037;-74
2021/03/05 02:29:22;;;;;;;12.82;8.15;;;2.10;99.90;;;;;;5013464;28;20081;-72
2021/03/05 02:31:50;;;;;;;18.73;8.43;;;2.20;99.90;;;;;;5013466;28;20496;-72
2021/03/05 02:34:31;;;;;;;12.55;7.35;;;2.10;99.90;;;;;;5027700;28;20084;-73
2021/03/05 02:37:05;;;;;;;15.68;7.30;;;2.10;99.90;;;;;;5012800;28;20030;-73
2021/03/05 02:39:57;;;;;;;15.25;7.47;;;2.10;99.90;;;;;;5012671;28;20485;-73
2021/03/05 02:42:27;;;;;;;18.30;8.13;;;2.00;99.90;;;;;;5012841;28;20022;-73
2021/03/05 02:45:01;;;;;;;17.52;8.85;;;1.90;99.90;;;;;;5012959;28;20049;-73
2021/03/05 02:47:30;;;;;;;10.50;7.38;;;1.90;99.90;;;;;;5013168;28;20593;-73
2021/03/05 02:50:00;;;;;;;14.27;8.35;;;1.80;99.90;;;;;;5012536;28;20034;-73
2021/03/05 02:52:28;;;;;;;14.37;8.00;;;1.70;99.90;;;;;;5013566;28;20029;-73
2021/03/05 02:54:59;;;;;;;19.73;7.78;;;1.70;99.90;;;;;;5013521;28;20030;-72
2021/03/05 02:57:29;;;;;;;19.27;7.72;;;1.60;99.90;;;;;;5021923;28;20021;-73
2021/03/05 03:00:04;;;;;;;15.18;7.30;;;1.60;99.90;;;;;;5115887;27;707843;-72
2021/03/05 03:02:31;;;;;;;19.73;8.57;;;1.60;99.90;;;;;;5130565;27;20442;-72
2021/03/05 03:04:57;;;;;;;11.45;7.32;;;1.50;99.90;;;;;;5130197;27;20034;-72
2021/03/05 03:07:25;;;;;;;18.15;8.23;;;1.50;99.90;;;;;;5130902;28;20038;-72
2021/03/05 03:09:53;;;;;;;18.92;7.13;;;1.50;99.90;;;;;;5113956;28;20191;-72
2021/03/05 03:12:21;;;;;;;24.88;7.63;;;1.60;99.90;;;;;;5113572;28;20015;-72
2021/03/05 03:14:48;;;;;;;13.45;5.88;;;1.50;99.90;;;;;;5112465;28;20023;-72
2021/03/05 03:17:15;;;;;;;16.52;7.50;;;1.50;99.90;;;;;;5112805;28;20040;-73
2021/03/05 03:19:46;;;;;;;14.30;5.30;;;1.40;99.90;;;;;;5110471;28;20024;-72
2021/03/05 03:22:12;;;;;;;17.35;6.10;;;1.40;99.90;;;;;;5109638;28;20024;-71
2021/03/05 03:24:37;;;;;;;15.52;5.45;;;1.30;99.90;;;;;;5128837;28;20027;-72
2021/03/05 03:27:03;;;;;;;20.45;5.65;;;1.30;99.90;;;;;;5128410;28;20111;-73
2021/03/05 03:29:29;;;;;;;16.20;4.85;;;1.30;99.90;;;;;;5129442;27;20054;-73
2021/03/05 03:31:58;;;;;;;14.20;4.43;;;1.20;99.90;;;;;;5128418;27;20110;-73
2021/03/05 03:34:24;;;;;;;15.98;3.95;;;1.30;99.90;;;;;;5127901;28;20395;-73
2021/03/05 03:36:57;;;;;;;12.10;4.53;;;1.30;99.90;;;;;;5108773;28;20015;-73
2021/03/05 03:39:24;;;;;;;17.05;4.22;;;1.20;99.90;;;;;;5108637;28;20114;-72
2021/03/05 03:41:50;;;;;;;17.65;4.18;;;1.20;99.90;;;;;;5114986;28;20102;-71
2021/03/05 03:44:16;;;;;;;14.13;3.92;;;1.20;99.90;;;;;;5117336;27;20060;-72
2021/03/05 03:46:49;;;;;;;12.68;3.17;;;1.20;99.90;;;;;;5108218;28;20058;-72
2021/03/05 03:49:21;;;;;;;9.93;3.92;;;1.20;99.90;;;;;;5109389;28;20027;-73
2021/03/05 03:51:54;;;;;;;24.58;3.72;;;1.10;99.90;;;;;;5113322;28;20058;-73
2021/03/05 03:54:21;;;;;;;8.25;3.45;;;1.10;99.90;;;;;;5129153;27;20019;-73
2021/03/05 03:56:50;;;;;;;15.90;3.38;;;1.00;99.90;;;;;;5129523;27;20016;-72
2021/03/05 03:59:17;;;;;;;16.25;2.92;;;1.00;99.90;;;;;;5128866;27;20468;-72
2021/03/05 04:01:45;;;;;;;10.57;2.85;;;1.00;99.90;;;;;;5128937;27;20024;-71
2021/03/05 04:04:12;;;;;;;13.70;2.90;;;1.00;99.90;;;;;;5129743;28;20474;-72
2021/03/05 04:06:39;;;;;;;13.48;2.88;;;1.00;99.90;;;;;;5116050;27;20471;-72
2021/03/05 04:09:05;;;;;;;25.13;2.70;;;1.00;99.90;;;;;;5110209;28;20080;-72
2021/03/05 04:11:32;;;;;;;14.02;2.50;;;1.00;99.90;;;;;;5100307;28;20020;-72
2021/03/05 04:13:58;;;;;;;29.58;4.47;;;1.00;99.90;;;;;;5100143;28;20414;-71
2021/03/05 04:16:23;;;;;;;15.45;2.88;;;1.00;99.90;;;;;;5095154;28;20036;-72
2021/03/05 04:18:51;;;;;;;19.92;3.13;;;1.00;99.90;;;;;;5097179;28;20472;-72
2021/03/05 04:21:20;;;;;;;17.42;2.00;;;1.00;99.90;;;;;;5114844;28;20503;-73
2021/03/05 04:23:46;;;;;;;18.27;2.60;;;1.00;99.90;;;;;;5113941;28;20471;-72
2021/03/05 04:26:12;;;;;;;15.13;3.42;;;1.00;99.90;;;;;;5094466;28;20030;-72
2021/03/05 04:28:38;;;;;;;16.35;2.78;;;1.00;99.90;;;;;;5094467;28;20028;-71
2021/03/05 04:31:03;;;;;;;12.88;2.15;;;1.00;99.90;;;;;;5113766;28;20548;-73
2021/03/05 04:33:29;;;;;;;14.57;4.45;;;1.00;99.90;;;;;;5114907;28;20515;-72
2021/03/05 04:35:55;;;;;;;15.10;1.95;;;0.90;99.90;;;;;;5096416;28;20024;-72
2021/03/05 04:38:21;;;;;;;21.75;3.95;;;0.90;99.90;;;;;;5094802;28;20028;-72
2021/03/05 04:40:46;;;;;;;11.43;1.58;;;0.90;99.90;;;;;;5094429;28;20484;-72
2021/03/05 04:43:12;;;;;;;15.73;2.03;;;1.00;99.90;;;;;;5111295;28;20379;-72
2021/03/05 04:45:37;;;;;;;12.13;1.67;;;1.00;99.90;;;;;;5114849;28;20039;-72
2021/03/05 04:48:03;;;;;;;9.00;1.90;;;0.90;99.90;;;;;;5114567;28;20024;-72
2021/03/05 04:50:29;;;;;;;17.17;1.83;;;0.90;99.90;;;;;;5114114;28;20093;-72
2021/03/05 04:52:54;;;;;;;11.82;2.15;;;0.90;99.90;;;;;;5114768;28;20066;-72
2021/03/05 04:55:20;;;;;;;12.52;1.83;;;0.90;99.90;;;;;;5117508;28;20037;-72
2021/03/05 04:57:46;;;;;;;12.30;1.67;;;0.80;99.90;;;;;;5121323;28;20027;-72
2021/03/05 05:00:12;;;;;;;15.40;1.80;;;0.80;99.90;;;;;;5114267;28;20036;-72
2021/03/05 05:02:37;;;;;;;17.00;1.70;;;0.90;99.90;;;;;;5114386;28;20031;-72
2021/03/05 05:05:03;;;;;;;20.98;1.65;;;0.80;99.90;;;;;;5113504;28;20030;-72
2021/03/05 05:07:29;;;;;;;10.38;2.15;;;0.70;99.90;;;;;;5104540;28;20095;-72
2021/03/05 05:09:54;;;;;;;14.98;3.13;;;0.70;99.90;;;;;;5118318;28;20442;-72
2021/03/05 05:12:21;;;;;;;15.48;2.10;;;0.70;99.90;;;;;;5123819;28;20016;-72
2021/03/05 05:14:49;;;;;;;10.68;1.95;;;0.70;99.90;;;;;;5114068;27;20058;-72
2021/03/05 05:17:15;;;;;;;10.77;2.38;;;0.60;99.90;;;;;;5113648;28;20031;-72
2021/03/05 05:19:41;;;;;;;13.82;2.13;;;0.60;99.90;;;;;;5113990;28;20103;-72
2021/03/05 05:22:06;;;;;;;7.88;2.00;;;0.60;99.90;;;;;;5112742;28;20035;-72
2021/03/05 05:24:32;;;;;;;13.70;2.38;;;0.60;99.90;;;;;;5113758;28;20019;-71
2021/03/05 05:26:57;;;;;;;7.00;1.52;;;0.50;99.90;;;;;;5113903;28;20038;-71
2021/03/05 05:29:23;;;;;;;10.98;1.23;;;0.50;99.90;;;;;;5113599;28;20015;-72
2021/03/05 05:31:48;;;;;;;10.05;2.20;;;0.50;99.90;;;;;;5113057;28;20023;-71
2021/03/05 05:34:14;;;;;;;14.30;1.73;;;0.50;99.90;;;;;;5113679;28;20023;-71
2021/03/05 05:36:40;;;;;;;6.00;1.40;;;0.50;99.90;;;;;;5113878;28;20050;-72
2021/03/05 05:39:05;;;;;;;20.17;1.98;;;0.50;99.90;;;;;;5112913;28;20039;-72
2021/03/05 05:41:32;;;;;;;13.95;2.38;;;0.40;99.90;;;;;;5110117;28;20027;-72
2021/03/05 05:43:57;;;;;;;25.98;2.05;;;0.40;99.90;;;;;;5092794;28;20028;-72
2021/03/05 05:46:24;;;;;;;9.55;1.63;;;0.30;99.90;;;;;;5094152;28;20107;-71
2021/03/05 05:48:50;;;;;;;7.45;1.80;;;0.30;99.90;;;;;;5113632;28;20483;-70
2021/03/05 05:51:22;;;;;;;19.20;1.85;;;0.30;99.90;;;;;;5113959;28;20062;-73
2021/03/05 05:53:48;;;;;;;18.27;3.60;;;0.30;99.90;;;;;;5113711;28;20019;-72
2021/03/05 05:56:15;;;;;;;9.65;1.98;;;0.20;99.90;;;;;;5113581;28;20034;-72
2021/03/05 05:58:41;;;;;;;18.40;2.60;;;0.20;99.90;;;;;;5113307;28;20071;-72
2021/03/05 06:01:07;;;;;;;9.35;1.75;;;0.20;99.90;;;;;;5112777;28;20036;-73
2021/03/05 06:03:33;;;;;;;9.32;1.33;;;0.20;99.90;;;;;;5113219;27;20390;-72
2021/03/05 06:06:00;;;;;;;11.00;1.60;;;0.20;99.90;;;;;;5103670;28;20020;-72
2021/03/05 06:08:28;;;;;;;13.13;2.72;;;0.10;99.90;;;;;;5099593;28;20019;-72
2021/03/05 06:10:54;;;;;;;17.80;2.40;;;0.10;99.90;;;;;;5108977;28;20080;-71
2021/03/05 06:13:23;;;;;;;14.90;1.58;;;0.10;99.90;;;;;;5109625;28;20019;-71
2021/03/05 06:16:18;;;;;;;12.27;1.92;;;0.10;99.90;;;;;;5108976;28;20023;-71
2021/03/05 06:18:45;;;;;;;16.65;1.70;;;0.10;99.90;;;;;;5105724;28;20043;-71
2021/03/05 06:21:14;;;;;;;16.88;1.98;;;0.00;99.90;;;;;;5107637;28;20020;-72
2021/03/05 06:24:00;;;;;;;9.55;2.30;;;0.00;99.90;;;;;;5109346;28;20084;-72
2021/03/05 06:26:26;;;;;;;11.90;2.25;;;0.00;99.90;;;;;;5107045;28;20027;-72
2021/03/05 06:29:05;;;;;;;10.48;2.20;;;0.00;99.90;;;;;;5106096;28;20019;-71
2021/03/05 06:31:33;;;;;;;12.77;2.65;;;0.00;99.90;;;;;;5110555;28;20529;-72
2021/03/05 06:34:03;;;;;;;15.65;2.20;;;0.00;99.90;;;;;;5107182;28;20056;-71
2021/03/05 06:36:30;;;;;;;15.43;1.52;;;0.00;99.90;;;;;;5095428;28;20035;-71
2021/03/05 06:38:56;;;;;;;14.50;1.95;;;0.00;99.90;;;;;;5091018;28;20039;-72
2021/03/05 06:41:26;;;;;;;15.48;1.80;;;0.00;99.90;;;;;;5094707;28;20618;-72
2021/03/05 06:43:59;;;;;;;6.88;1.38;;;0.00;99.90;;;;;;5098737;28;20106;-71
2021/03/05 06:46:39;;;;;;;16.52;3.30;;;0.10;99.90;;;;;;5092232;28;20028;-72
2021/03/05 06:49:10;;;;;;;14.57;1.92;;;0.10;99.90;;;;;;5110346;28;20019;-71
2021/03/05 06:51:36;;;;;;;12.88;1.90;;;0.10;99.90;;;;;;5110932;28;20019;-70
2021/03/05 06:54:08;;;;;;;14.27;2.08;;;0.20;99.90;;;;;;5104571;28;20102;-72
2021/03/05 06:56:39;;;;;;;14.82;2.22;;;0.20;99.90;;;;;;5096706;28;20428;-72
2021/03/05 06:59:13;;;;;;;10.30;1.88;;;0.30;99.90;;;;;;5090707;28;20122;-71
2021/03/05 07:01:59;;;;;;;19.85;2.45;;;0.30;99.90;;;;;;5094156;28;20012;-72
2021/03/05 07:04:26;;;;;;;8.48;1.65;;;0.30;99.90;;;;;;5094864;28;20108;-72
2021/03/05 07:07:00;;;;;;;5.93;1.67;;;0.40;99.90;;;;;;5094047;28;20348;-72
2021/03/05 07:09:37;;;;;;;6.13;1.70;;;0.50;99.90;;;;;;5098674;28;20416;-72
2021/03/05 07:12:17;;;;;;;10.60;1.90;;;0.50;99.90;;;;;;5100114;28;20070;-71
2021/03/05 07:14:45;;;;;;;18.25;4.25;;;0.70;99.90;;;;;;5091558;28;20408;-72
2021/03/05 07:17:14;;;;;;;10.75;1.85;;;0.80;99.90;;;;;;5101046;28;20061;-71
2021/03/05 07:19:40;;;;;;;6.90;1.95;;;0.90;99.90;;;;;;5107721;28;20032;-72
2021/03/05 07:22:07;;;;;;;15.25;2.83;;;0.90;99.90;;;;;;5094541;28;20042;-71
2021/03/05 07:24:34;;;;;;;14.70;2.60;;;0.90;99.90;;;;;;5098025;28;20475;-72
2021/03/05 07:27:02;;;;;;;11.25;2.08;;;1.00;99.90;;;;;;5106836;28;20038;-71
2021/03/05 07:29:44;;;;;;;8.63;3.30;;;1.00;99.90;;;;;;5097306;28;20031;-72
2021/03/05 07:32:34;;;;;;;3.85;2.05;;;1.10;99.90;;;;;;5091896;28;20016;-72
2021/03/05 07:35:05;;;;;;;17.60;2.60;;;1.20;99.90;;;;;;5090234;28;20060;-71
2021/03/05 07:37:37;;;;;;;13.75;2.25;;;1.30;99.90;;;;;;5094536;28;20059;-71
2021/03/05 07:40:10;;;;;;;10.15;1.70;;;1.30;99.90;;;;;;5090402;28;20395;-76
2021/03/05 07:42:37;;;;;;;10.02;2.30;;;1.40;99.90;;;;;;5095094;28;20078;-76
2021/03/05 07:45:05;;;;;;;8.65;2.22;;;1.50;99.90;;;;;;5105530;28;20110;-76
2021/03/05 07:47:33;;;;;;;16.75;2.85;;;1.60;99.90;;;;;;5100171;28;20486;-74
2021/03/05 07:50:00;;;;;;;10.88;2.03;;;1.60;99.90;;;;;;5094722;28;20047;-76
2021/03/05 07:52:25;;;;;;;8.10;2.05;;;1.70;99.90;;;;;;5094450;28;20027;-76
2021/03/05 07:54:51;;;;;;;9.68;2.28;;;1.70;99.90;;;;;;5097186;28;20024;-76
2021/03/05 07:57:20;;;;;;;10.75;2.42;;;1.80;99.90;;;;;;5097708;28;20024;-77
2021/03/05 07:59:47;;;;;;;7.53;2.33;;;1.90;99.90;;;;;;5111115;28;20048;-75
2021/03/05 08:02:14;;;;;;;9.57;3.03;;;1.90;99.90;;;;;;5106485;28;20107;-75
2021/03/05 08:05:14;;;;;;;12.00;2.08;;;2.00;99.90;;;;;;5098349;28;20024;-76
2021/03/05 08:07:38;;;;;;;9.88;2.30;;;2.10;99.90;;;;;;5106621;28;20027;-77
2021/03/05 08:10:04;;;;;;;4.00;2.10;;;2.20;99.90;;;;;;5097546;28;20054;-77
2021/03/05 08:12:42;;;;;;;10.43;2.22;;;2.20;99.90;;;;;;5097664;28;20032;-75
2021/03/05 08:15:08;;;;;;;13.30;2.70;;;2.30;99.90;;;;;;5100251;28;20031;-74
2021/03/05 08:17:38;;;;;;;6.82;2.22;;;2.30;99.90;;;;;;5098033;28;20024;-76
2021/03/05 08:20:04;;;;;;;;;;;2.30;99.90;;;;;;5099355;28;20406;-76
2021/03/05 08:22:31;;;;;;;13.82;2.60;;;2.40;99.90;;;;;;5101357;28;19904;-75
2021/03/05 08:25:23;;;;;;;8.88;2.50;;;2.40;99.90;;;;;;5101369;28;20028;-75
2021/03/05 08:27:49;;;;;;;6.78;2.20;;;2.50;99.90;;;;;;5097502;28;20024;-75
2021/03/05 08:30:20;;;;;;;7.97;2.10;;;2.90;99.90;;;;;;5097126;28;20476;-76
2021/03/05 08:33:02;;;;;;;12.07;2.30;;;2.60;99.90;;;;;;5102854;28;20024;-78
2021/03/05 08:35:31;;;;;;;9.18;2.33;;;2.70;99.90;;;;;;5092775;28;20028;-75
2021/03/05 08:38:00;;;;;;;3.70;2.38;;;2.70;99.90;;;;;;5095484;28;20022;-79
2021/03/05 08:40:31;;;;;;;8.38;2.20;;;2.70;99.90;;;;;;5100553;28;20035;-72
2021/03/05 08:43:09;;;;;;;4.18;1.80;;;2.90;99.90;;;;;;5095902;28;20027;-74
2021/03/05 08:45:43;;;;;;;8.75;2.20;;;3.00;99.90;;;;;;5100503;28;20032;-76
2021/03/05 08:48:15;;;;;;;10.25;3.25;;;3.00;99.90;;;;;;5099815;28;20054;-76
2021/03/05 08:50:41;;;;;;;3.25;2.13;;;3.10;99.90;;;;;;5099889;28;20027;-75
2021/03/05 08:53:13;;;;;;;11.20;1.73;;;3.10;99.90;;;;;;5103538;28;20024;-76
2021/03/05 08:55:41;;;;;;;6.30;1.52;;;3.20;99.90;;;;;;5100202;28;20028;-74
2021/03/05 08:58:07;;;;;;;11.45;2.90;;;3.20;99.90;;;;;;5104796;28;20089;-75
2021/03/05 09:00:35;;;;;;;6.78;1.88;;;3.30;99.90;;;;;;5106478;28;20044;-76
2021/03/05 09:03:09;;;;;;;8.18;2.00;;;3.30;99.90;;;;;;5093558;28;20031;-76
2021/03/05 09:05:46;;;;;;;14.07;3.28;;;3.50;99.90;;;;;;5106358;28;20047;-75
2021/03/05 09:08:13;;;;;;;7.18;1.80;;;3.50;99.90;;;;;;5105009;28;20498;-77
2021/03/05 09:10:46;;;;;;;5.95;1.40;;;3.50;99.90;;;;;;5092472;28;20027;-77
2021/03/05 09:13:14;;;;;;;5.07;1.40;;;3.60;99.90;;;;;;5109983;28;20538;-77
2021/03/05 09:15:49;;;;;;;2.75;0.90;;;3.60;99.90;;;;;;5094373;28;20411;-75
2021/03/05 09:18:18;;;;;;;2.78;0.82;;;3.60;99.90;;;;;;5095389;28;20036;-76
2021/03/05 09:20:49;;;;;;;4.03;0.77;;;3.70;99.90;;;;;;5091556;28;20023;-76
2021/03/05 09:23:19;;;;;;;2.10;0.80;;;3.70;99.90;;;;;;5104085;28;20026;-76
2021/03/05 09:25:48;;;;;;;2.08;1.08;;;3.80;99.90;;;;;;5103279;28;20027;-77
2021/03/05 09:28:14;;;;;;;4.28;0.80;;;3.90;99.90;;;;;;5099211;28;20584;-77
2021/03/05 09:30:40;;;;;;;3.17;0.88;;;3.90;99.90;;;;;;5099164;28;20024;-77
2021/03/05 09:33:06;;;;;;;17.13;2.30;;;3.90;99.90;;;;;;5108409;28;20538;-77
2021/03/05 09:35:32;;;;;;;1.95;0.60;;;4.00;99.70;;;;;;5098844;28;20119;-77
2021/03/05 09:37:58;;;;;;;1.23;0.50;;;4.10;97.50;;;;;;5105034;28;20023;-77
2021/03/05 09:40:26;;;;;;;1.98;0.60;;;4.20;98.80;;;;;;5100678;28;20043;-77
2021/03/05 09:42:55;;;;;;;5.88;0.98;;;4.20;99.00;;;;;;5104153;28;20031;-76
2021/03/05 09:45:43;;;;;;;3.00;1.00;;;4.20;96.60;;;;;;5102218;28;20031;-76
2021/03/05 09:48:30;;;;;;;4.95;1.20;;;4.30;97.90;;;;;;5101237;28;20517;-75
2021/03/05 09:51:02;;;;;;;2.45;0.70;;;4.40;98.00;;;;;;5103934;28;20073;-76
2021/03/05 09:53:36;;;;;;;2.85;0.60;;;4.50;97.90;;;;;;5103740;28;20020;-77
2021/03/05 09:56:07;;;;;;;2.95;0.60;;;4.50;97.90;;;;;;5110510;27;20028;-76
2021/03/05 09:58:33;;;;;;;1.90;0.47;;;4.60;97.10;;;;;;5106884;28;20019;-77
2021/03/05 10:00:59;;;;;;;1.02;0.73;;;4.60;96.40;;;;;;5101815;28;20020;-76
2021/03/05 10:03:26;;;;;;;2.30;0.70;;;4.60;95.20;;;;;;5096317;28;20028;-76
2021/03/05 10:05:52;;;;;;;3.92;0.52;;;4.60;90.80;;;;;;5100493;28;20062;-77
2021/03/05 10:08:25;;;;;;;3.28;0.63;;;4.70;93.50;;;;;;5103145;28;20382;-77
2021/03/05 10:11:07;;;;;;;4.43;1.67;;;4.70;91.20;;;;;;5097336;28;20504;-77
2021/03/05 10:13:51;;;;;;;3.55;0.63;;;4.80;90.60;;;;;;5099557;28;20448;-76
2021/03/05 10:16:29;;;;;;;3.25;0.60;;;4.90;88.80;;;;;;5101280;28;20027;-76
2021/03/05 10:18:59;;;;;;;1.48;0.45;;;4.90;86.90;;;;;;5108544;28;20038;-75
2021/03/05 10:21:25;;;;;;;1.30;0.30;;;5.00;79.40;;;;;;5098945;28;20032;-78
2021/03/05 10:23:51;;;;;;;1.25;0.45;;;5.00;81.90;;;;;;5093480;28;20101;-76
2021/03/05 10:26:28;;;;;;;1.40;0.50;;;5.10;81.40;;;;;;5100456;28;20073;-77
2021/03/05 10:29:05;;;;;;;1.80;0.50;;;5.10;81.80;;;;;;5107423;28;20023;-76
2021/03/05 10:31:43;;;;;;;2.33;0.20;;;5.20;81.30;;;;;;5103763;28;20349;-76
2021/03/05 10:34:31;;;;;;;3.40;0.52;;;5.20;80.30;;;;;;5102897;28;20053;-77
2021/03/05 10:37:02;;;;;;;0.98;0.30;;;5.20;76.50;;;;;;5102699;28;20024;-77
2021/03/05 10:39:32;;;;;;;3.00;0.70;;;5.20;78.00;;;;;;5100152;28;20035;-76
2021/03/05 10:42:05;;;;;;;7.20;0.55;;;5.20;76.40;;;;;;5104355;28;20018;-77
2021/03/05 10:44:32;;;;;;;1.13;0.32;;;5.20;76.50;;;;;;5097783;28;20059;-76
2021/03/05 10:47:00;;;;;;;0.57;0.30;;;5.30;79.70;;;;;;5095385;28;20024;-75
2021/03/05 10:49:26;;;;;;;2.15;0.40;;;5.40;78.10;;;;;;5103179;28;20028;-76
2021/03/05 10:51:52;;;;;;;3.20;0.55;;;5.40;78.30;;;;;;5106593;28;20068;-77
2021/03/05 10:54:18;;;;;;;3.13;0.63;;;5.40;82.30;;;;;;5101397;28;20024;-77
2021/03/05 10:56:44;;;;;;;2.92;0.50;;;5.50;80.20;;;;;;5097060;28;20024;-77
2021/03/05 10:59:11;;;;;;;1.55;0.50;;;5.50;78.50;;;;;;5105375;28;20070;-76
2021/03/05 11:01:37;;;;;;;1.48;0.45;;;5.50;79.00;;;;;;5106374;28;20073;-76
2021/03/05 11:04:04;;;;;;;2.55;0.50;;;5.60;77.80;;;;;;5098969;28;20023;-75
2021/03/05 11:06:30;;;;;;;1.45;0.57;;;5.60;77.90;;;;;;5104180;28;20046;-76
2021/03/05 11:08:55;;;;;;;2.55;0.63;;;5.70;81.30;;;;;;5105011;28;20566;-76
2021/03/05 11:11:21;;;;;;;0.77;0.38;;;5.80;78.80;;;;;;5111611;28;20504;-76
2021/03/05 11:14:13;;;;;;;3.15;0.50;;;5.70;79.20;;;;;;5095930;28;20027;-77
2021/03/05 11:16:39;;;;;;;8.38;1.13;;;5.80;81.00;;;;;;5104816;28;20047;-77
2021/03/05 11:19:06;;;;;;;3.17;0.80;;;5.80;80.90;;;;;;5106364;28;20023;-76
2021/03/05 11:21:35;;;;;;;1.65;0.60;;;5.90;83.30;;;;;;5109779;28;20111;-77
2021/03/05 11:24:01;;;;;;;0.75;0.43;;;6.00;84.90;;;;;;5099665;28;20020;-76
2021/03/05 11:26:27;;;;;;;4.45;0.55;;;6.00;81.20;;;;;;5102337;28;20024;-77
2021/03/05 11:28:54;;;;;;;1.23;0.60;;;6.10;82.70;;;;;;5109776;28;20027;-76
2021/03/05 11:31:20;;;;;;;1.75;0.40;;;6.20;81.40;;;;;;5100186;28;20031;-76
2021/03/05 11:33:49;;;;;;;2.65;0.63;;;6.20;78.60;;;;;;5111244;28;20032;-76
2021/03/05 11:36:19;;;;;;;1.05;0.77;;;6.00;78.40;;;;;;5100398;28;20382;-75
2021/03/05 11:38:46;;;;;;;0.82;0.38;;;6.10;80.50;;;;;;5104215;28;20490;-75
2021/03/05 11:41:13;;;;;;;1.52;0.50;;;6.10;79.30;;;;;;5104918;28;20543;-75
2021/03/05 11:43:40;;;;;;;0.88;0.40;;;6.20;77.80;;;;;;5103848;28;20054;-77
2021/03/05 11:46:06;;;;;;;0.50;0.30;;;6.30;80.10;;;;;;5099635;27;20028;-77
2021/03/05 11:48:31;;;;;;;5.00;0.60;;;6.30;80.20;;;;;;5099400;28;20021;-76
2021/03/05 11:50:57;;;;;;;3.50;0.40;;;6.20;77.70;;;;;;5099310;28;20028;-76
2021/03/05 11:53:23;;;;;;;2.58;0.40;;;6.30;81.50;;;;;;5102302;28;20028;-76
2021/03/05 11:55:48;;;;;;;5.38;0.45;;;6.40;76.60;;;;;;5110379;28;20379;-76
2021/03/05 11:58:14;;;;;;;1.05;0.40;;;6.40;78.20;;;;;;5103460;28;20410;-75
2021/03/05 12:00:39;;;;;;;0.52;0.40;;;6.40;79.20;;;;;;5108104;28;20570;-76
2021/03/05 12:03:05;;;;;;;1.85;0.73;;;6.50;78.10;;;;;;5103383;28;20524;-76
2021/03/05 12:05:30;;;;;;;1.02;0.50;;;6.60;80.50;;;;;;5099400;28;20024;-76
2021/03/05 12:07:56;;;;;;;4.15;0.52;;;6.60;78.70;;;;;;5103875;28;20019;-76
2021/03/05 12:10:22;;;;;;;1.52;0.50;;;6.50;74.80;;;;;;5109719;28;20016;-77
2021/03/05 12:12:47;;;;;;;1.45;0.75;;;6.50;75.30;;;;;;5096753;28;20016;-77
2021/03/05 12:15:13;;;;;;;1.67;0.52;;;6.50;75.30;;;;;;5110852;28;20048;-77
2021/03/05 12:17:39;;;;;;;1.13;0.30;;;6.50;74.20;;;;;;5100046;28;20106;-76
2021/03/05 12:20:05;;;;;;;5.30;0.68;;;6.50;75.30;;;;;;5104688;28;20024;-76
2021/03/05 12:22:31;;;;;;;2.72;0.70;;;6.60;74.70;;;;;;5108942;28;20099;-76
2021/03/05 12:24:56;;;;;;;1.77;0.47;;;6.60;76.30;;;;;;5101612;28;20210;-77
2021/03/05 12:27:23;;;;;;;2.90;0.50;;;6.50;75.80;;;;;;5101442;28;20019;-76
2021/03/05 12:29:48;;;;;;;3.22;0.60;;;6.70;74.50;;;;;;5108093;28;20456;-75
2021/03/05 12:32:14;;;;;;;1.90;0.50;;;6.70;73.90;;;;;;5107531;28;20032;-77
2021/03/05 12:34:42;;;;;;;3.00;0.50;;;6.90;74.60;;;;;;5107133;28;20023;-77
2021/03/05 12:37:08;;;;;;;1.52;0.50;;;6.80;73.90;;;;;;5098249;28;20519;-77
2021/03/05 12:39:34;;;;;;;2.30;0.50;;;6.90;74.10;;;;;;5108488;28;20118;-75
2021/03/05 12:42:00;;;;;;;2.17;0.45;;;7.00;74.80;;;;;;5108103;28;20024;-75
2021/03/05 12:44:25;;;;;;;1.77;0.60;;;7.00;74.20;;;;;;5105838;28;20031;-76
2021/03/05 12:46:51;;;;;;;3.25;0.63;;;6.90;75.40;;;;;;5105872;28;20019;-77
2021/03/05 12:49:16;;;;;;;2.83;0.73;;;6.90;76.20;;;;;;5105037;28;20072;-76
2021/03/05 12:51:42;;;;;;;4.05;0.50;;;6.80;76.90;;;;;;5106123;28;20383;-76
2021/03/05 12:54:07;;;;;;;3.00;0.85;;;6.80;77.80;;;;;;5097493;28;20059;-76
2021/03/05 12:56:33;;;;;;;6.25;0.57;;;6.90;79.00;;;;;;5103073;28;20147;-76
2021/03/05 12:58:59;;;;;;;2.95;0.50;;;6.80;77.20;;;;;;5104205;28;20055;-76
2021/03/05 13:01:24;;;;;;;3.13;0.45;;;6.80;77.90;;;;;;5102468;28;20028;-77